Amery, Wisconsin
Current Conditions -  °F | °C
As of 11:55 AM on Friday 19 Dec 2014 (Local Time) from KRNH Reporting Station
Overcast Overcast  
Wind Chill: 18°   Ceiling: 2400
Heat Index: 26°   Visibility: 10mi
Dew Point: 21°   Wind: 7mph
Humidity: 83%   Direction: 140°SE
Pressure: 30.24"   Gusts: NA
Location:  45.31°N, 92.36°W
Report Text: KRNH 191755Z AUTO 14006KT 10SM SCT016 OVC024 M03/M06 A3024 RMK AO2 T10351060 11035 21055
Loading
Personal Weather Stations






























Interactive Weather Map New forecast layout! Learn more

10-Day Weather Forecast

Advertisements
Track Severe Weather on mobile